createdAt,value
2018-03-07T00:00:26.572Z,99.99
2018-03-07T00:01:26.309Z,99.99
2018-03-07T00:02:26.302Z,99.99
2018-03-07T00:03:26.558Z,99.99
2018-03-07T00:04:26.536Z,99.99
2018-03-07T00:05:26.278Z,99.99
2018-03-07T00:06:26.530Z,99.99
2018-03-07T00:07:26.534Z,99.99
2018-03-07T00:08:26.264Z,99.99
2018-03-07T00:09:26.282Z,99.99
2018-03-07T00:10:26.253Z,99.99
2018-03-07T00:11:26.242Z,99.99
2018-03-07T00:12:26.486Z,99.99
2018-03-07T00:13:26.527Z,99.99
2018-03-07T00:14:26.470Z,99.99
2018-03-07T00:15:26.276Z,99.99
2018-03-07T00:16:26.618Z,99.99
2018-03-07T00:17:26.542Z,99.99
2018-03-07T00:18:26.465Z,99.99
2018-03-07T00:19:26.460Z,99.99
2018-03-07T00:20:26.439Z,99.99
2018-03-07T00:21:26.435Z,99.99
2018-03-07T00:22:26.185Z,99.99
2018-03-07T00:23:26.419Z,99.99
2018-03-07T00:24:26.177Z,99.99
2018-03-07T00:25:26.411Z,99.99
2018-03-07T00:26:26.156Z,99.99
2018-03-07T00:27:26.145Z,99.99
2018-03-07T00:28:26.436Z,99.99
2018-03-07T00:29:26.384Z,99.99
2018-03-07T00:30:26.124Z,99.99
2018-03-07T00:31:26.127Z,99.99
2018-03-07T00:32:26.362Z,99.99
2018-03-07T00:33:26.338Z,99.99
2018-03-07T00:34:26.106Z,99.99
2018-03-07T00:35:26.335Z,99.99
2018-03-07T00:36:26.322Z,99.99
2018-03-07T00:37:26.321Z,99.99
2018-03-07T00:38:26.063Z,99.99
2018-03-07T00:39:26.366Z,99.99
2018-03-07T00:40:26.097Z,99.99
2018-03-07T00:41:26.315Z,99.99
2018-03-07T00:42:26.070Z,99.99
2018-03-07T00:44:17.333Z,99.99
2018-03-07T00:45:27.022Z,99.99
2018-03-07T00:46:27.548Z,99.99
2018-03-07T00:47:06.952Z,99.99
2018-03-07T00:48:00.682Z,99.99
2018-03-07T00:49:00.673Z,99.99
2018-03-07T00:50:13.465Z,99.99
2018-03-07T00:51:00.662Z,99.99
2018-03-07T00:52:00.658Z,99.99
2018-03-07T00:53:02.484Z,99.99
2018-03-07T00:54:00.378Z,99.99
2018-03-07T00:55:00.622Z,99.99
2018-03-07T00:56:00.617Z,99.99
2018-03-07T00:57:00.623Z,99.99
2018-03-07T00:58:00.611Z,99.99
2018-03-07T00:59:00.594Z,99.99
2018-03-07T01:00:00.373Z,99.99
2018-03-07T01:01:00.348Z,99.99
2018-03-07T01:02:00.591Z,99.99
2018-03-07T01:03:00.602Z,99.99
2018-03-07T01:04:00.591Z,99.99
2018-03-07T01:05:00.628Z,99.99
2018-03-07T01:06:00.577Z,99.99
2018-03-07T01:07:00.584Z,99.99
2018-03-07T01:08:00.300Z,99.99
2018-03-07T01:09:00.543Z,99.99
2018-03-07T01:10:00.538Z,99.99
2018-03-07T01:11:00.538Z,99.99
2018-03-07T01:12:00.496Z,99.99
2018-03-07T01:13:00.490Z,99.99
2018-03-07T01:14:00.484Z,99.99
2018-03-07T01:15:00.480Z,99.99
2018-03-07T01:16:00.470Z,99.99
2018-03-07T01:17:00.466Z,99.99
2018-03-07T01:18:00.460Z,99.99
2018-03-07T01:19:00.449Z,99.99
2018-03-07T01:20:00.235Z,99.99
2018-03-07T01:21:00.215Z,99.99
2018-03-07T01:22:00.227Z,99.99
2018-03-07T01:23:00.184Z,99.99
2018-03-07T01:24:00.407Z,99.99
2018-03-07T01:25:00.405Z,99.99
2018-03-07T01:26:00.401Z,99.99
2018-03-07T01:27:00.391Z,99.99
2018-03-07T01:28:00.379Z,99.99
2018-03-07T01:29:00.372Z,99.99
2018-03-07T01:30:00.378Z,99.99
2018-03-07T01:31:00.157Z,99.99
2018-03-07T01:32:00.093Z,99.99
2018-03-07T01:33:00.345Z,99.99
2018-03-07T01:34:00.089Z,99.99
2018-03-07T01:35:00.333Z,99.99
2018-03-07T01:36:00.073Z,99.99
2018-03-07T01:37:00.318Z,99.99
2018-03-07T01:38:00.057Z,99.99
2018-03-07T01:39:00.296Z,99.99
2018-03-07T01:40:00.284Z,99.99
2018-03-07T01:41:00.025Z,99.99
2018-03-07T01:42:00.275Z,99.99
2018-03-07T01:43:00.274Z,99.99
2018-03-07T01:44:00.007Z,99.99
2018-03-07T01:45:00.251Z,99.99
2018-03-07T01:46:00.035Z,99.99
2018-03-07T01:47:00.242Z,99.99
2018-03-07T01:48:00.220Z,99.99
2018-03-07T01:49:00.213Z,99.99
2018-03-07T01:50:00.227Z,99.99
2018-03-07T01:50:59.956Z,99.99
2018-03-07T01:52:00.208Z,99.99
2018-03-07T01:52:59.929Z,99.99
2018-03-07T01:53:59.916Z,99.99
2018-03-07T01:54:59.907Z,99.99
2018-03-07T01:56:00.152Z,99.99
2018-03-07T01:56:59.904Z,99.99
2018-03-07T01:57:59.899Z,99.99
2018-03-07T01:58:59.875Z,99.99
2018-03-07T01:59:59.873Z,99.99
2018-03-07T02:00:59.863Z,99.99
2018-03-07T02:02:00.116Z,99.99
2018-03-07T02:03:00.101Z,99.99
2018-03-07T02:04:00.089Z,99.99
2018-03-07T02:04:59.824Z,99.99
2018-03-07T02:06:00.072Z,99.99
2018-03-07T02:07:00.079Z,99.99
2018-03-07T02:08:00.051Z,99.99
2018-03-07T02:09:02.107Z,99.99
2018-03-07T02:09:59.783Z,99.99
2018-03-07T02:10:59.806Z,99.99
2018-03-07T02:12:00.030Z,99.99
2018-03-07T02:13:00.021Z,99.99
2018-03-07T02:14:00.010Z,99.99
2018-03-07T02:14:59.994Z,99.99
2018-03-07T02:15:59.740Z,99.99
2018-03-07T02:16:59.978Z,99.99
2018-03-07T02:17:59.724Z,99.99
2018-03-07T02:18:59.965Z,99.99
2018-03-07T02:19:59.958Z,99.99
2018-03-07T02:20:59.697Z,99.99
2018-03-07T02:21:59.681Z,99.99
2018-03-07T02:22:59.672Z,99.99
2018-03-07T02:24:00.515Z,99.99
2018-03-07T02:24:59.913Z,99.99
2018-03-07T02:25:59.902Z,99.99
2018-03-07T02:26:59.639Z,99.99
2018-03-07T02:27:59.885Z,99.99
2018-03-07T02:28:59.626Z,99.99
2018-03-07T02:29:59.877Z,99.99
2018-03-07T02:30:59.867Z,99.99
2018-03-07T02:31:59.848Z,99.99
2018-03-07T02:32:59.858Z,99.99
2018-03-07T02:33:59.840Z,99.99
2018-03-07T02:34:59.850Z,99.99
2018-03-07T02:35:59.822Z,99.99
2018-03-07T02:36:59.810Z,99.99
2018-03-07T02:37:59.801Z,99.99
2018-03-07T02:38:59.799Z,99.99
2018-03-07T02:39:59.781Z,99.99
2018-03-07T02:40:59.787Z,99.99
2018-03-07T02:41:59.777Z,99.99
2018-03-07T02:42:59.772Z,99.99
2018-03-07T02:43:59.748Z,99.99
2018-03-07T02:44:59.751Z,99.99
2018-03-07T02:45:59.737Z,99.99
2018-03-07T02:46:59.718Z,99.99
2018-03-07T02:47:59.465Z,99.99
2018-03-07T02:48:59.788Z,99.99
2018-03-07T02:49:59.793Z,99.99
2018-03-07T02:50:59.683Z,99.99
2018-03-07T02:51:59.677Z,99.99
2018-03-07T02:52:59.664Z,99.99
2018-03-07T02:53:59.725Z,99.99
2018-03-07T02:54:59.651Z,99.99
2018-03-07T02:55:59.643Z,99.99
2018-03-07T02:56:59.652Z,99.99
2018-03-07T02:57:59.634Z,99.99
2018-03-07T02:58:59.616Z,99.99
2018-03-07T02:59:59.613Z,99.99
2018-03-07T03:00:59.630Z,99.99
2018-03-07T03:01:59.606Z,99.99
2018-03-07T03:02:59.592Z,99.99
2018-03-07T03:03:59.577Z,99.99
2018-03-07T03:04:59.563Z,99.99
2018-03-07T03:05:59.593Z,99.99
2018-03-07T03:06:59.545Z,99.99
2018-03-07T03:07:59.534Z,99.99
2018-03-07T03:08:59.349Z,99.99
2018-03-07T03:09:59.523Z,99.99
2018-03-07T03:10:59.503Z,99.99
2018-03-07T03:11:59.495Z,99.99
2018-03-07T03:12:59.499Z,99.99
2018-03-07T03:13:59.493Z,99.99
2018-03-07T03:14:59.348Z,99.99
2018-03-07T03:15:59.480Z,99.99
2018-03-07T03:16:59.450Z,99.99
2018-03-07T03:17:59.440Z,99.99
2018-03-07T03:18:59.193Z,99.99
2018-03-07T03:20:00.227Z,99.99
2018-03-07T03:20:59.470Z,99.99
2018-03-07T03:21:59.411Z,99.99
2018-03-07T03:22:59.393Z,99.99
2018-03-07T03:23:59.137Z,99.99
2018-03-07T03:25:00.229Z,99.99
2018-03-07T03:25:59.115Z,99.99
2018-03-07T03:26:59.104Z,99.99
2018-03-07T03:27:59.389Z,99.99
2018-03-07T03:28:59.339Z,99.99
2018-03-07T03:29:59.079Z,99.99
2018-03-07T03:30:59.120Z,99.99
2018-03-07T03:31:59.315Z,99.99
2018-03-07T03:32:59.308Z,99.99
2018-03-07T03:33:59.296Z,99.99
2018-03-07T03:34:59.284Z,99.99
2018-03-07T03:35:59.275Z,99.99
2018-03-07T03:36:59.270Z,99.99
2018-03-07T03:37:59.260Z,99.99
2018-03-07T03:38:59.257Z,99.99
2018-03-07T03:39:59.307Z,99.99
2018-03-07T03:40:59.084Z,99.99
2018-03-07T03:41:59.224Z,99.99
2018-03-07T03:42:59.210Z,99.99
2018-03-07T03:43:59.206Z,99.99
2018-03-07T03:44:59.203Z,99.99
2018-03-07T03:45:58.931Z,99.99
2018-03-07T03:46:59.174Z,99.99
2018-03-07T03:47:59.173Z,99.99
2018-03-07T03:48:59.166Z,99.99
2018-03-07T03:49:58.891Z,99.99
2018-03-07T03:50:59.136Z,99.99
2018-03-07T03:51:59.138Z,99.99
2018-03-07T03:52:59.124Z,99.99
2018-03-07T03:53:59.108Z,99.99
2018-03-07T03:54:58.854Z,99.99
2018-03-07T03:55:59.092Z,99.99
2018-03-07T03:56:59.078Z,99.99
2018-03-07T03:57:59.076Z,99.99
2018-03-07T03:58:59.073Z,99.99
2018-03-07T03:59:59.049Z,99.99
2018-03-07T04:00:59.042Z,99.99
2018-03-07T04:01:59.042Z,99.99
2018-03-07T04:02:59.024Z,99.99
2018-03-07T04:03:59.018Z,99.99
2018-03-07T04:04:59.010Z,99.99
2018-03-07T04:05:58.998Z,99.99
2018-03-07T04:06:58.989Z,99.99
2018-03-07T04:07:58.978Z,99.99
2018-03-07T04:08:58.977Z,99.99
2018-03-07T04:09:58.704Z,99.99
2018-03-07T04:10:59.249Z,99.99
2018-03-07T04:11:58.936Z,99.99
2018-03-07T04:12:58.928Z,99.99
2018-03-07T04:13:58.918Z,99.99
2018-03-07T04:14:58.916Z,99.99
2018-03-07T04:15:58.903Z,99.99
2018-03-07T04:16:58.892Z,99.99
2018-03-07T04:17:58.879Z,99.99
2018-03-07T04:18:58.622Z,99.99
2018-03-07T04:19:58.866Z,99.99
2018-03-07T04:20:58.856Z,99.99
2018-03-07T04:21:58.847Z,99.99
2018-03-07T04:22:58.833Z,99.99
2018-03-07T04:23:58.829Z,99.99
2018-03-07T04:24:58.814Z,99.99
2018-03-07T04:25:59.664Z,99.99
2018-03-07T04:26:58.545Z,99.99
2018-03-07T04:27:58.533Z,99.99
2018-03-07T04:28:58.777Z,99.99
2018-03-07T04:29:58.514Z,99.99
2018-03-07T04:30:58.758Z,99.99
2018-03-07T04:31:58.749Z,99.99
2018-03-07T04:32:58.745Z,99.99
2018-03-07T04:33:58.729Z,99.99
2018-03-07T04:34:58.731Z,99.99
2018-03-07T04:35:58.758Z,99.99
2018-03-07T04:36:58.708Z,99.99
2018-03-07T04:37:58.709Z,99.99
2018-03-07T04:38:58.434Z,99.99
2018-03-07T04:39:58.430Z,99.99
2018-03-07T04:40:58.682Z,99.99
2018-03-07T04:41:58.420Z,99.99
2018-03-07T04:42:58.664Z,99.99
2018-03-07T04:43:58.646Z,99.99
2018-03-07T04:44:58.383Z,99.99
2018-03-07T04:45:58.637Z,99.99
2018-03-07T04:46:58.616Z,99.99
2018-03-07T04:47:58.618Z,99.99
2018-03-07T04:48:58.615Z,99.99
2018-03-07T04:49:58.594Z,99.99
2018-03-07T04:50:58.597Z,99.99
2018-03-07T04:51:58.574Z,99.99
2018-03-07T04:52:58.565Z,99.99
2018-03-07T04:53:58.574Z,99.99
2018-03-07T04:54:58.293Z,99.99
2018-03-07T04:55:58.288Z,99.99
2018-03-07T04:56:58.531Z,99.99
2018-03-07T04:57:58.290Z,99.99
2018-03-07T04:58:58.520Z,99.99
2018-03-07T04:59:58.518Z,99.99
2018-03-07T05:00:58.580Z,99.99
2018-03-07T05:01:58.497Z,99.99
2018-03-07T05:02:58.486Z,99.99
2018-03-07T05:03:58.465Z,99.99
2018-03-07T05:04:58.198Z,99.99
2018-03-07T05:05:58.468Z,99.99
2018-03-07T05:06:58.201Z,99.99
2018-03-07T05:07:58.441Z,99.99
2018-03-07T05:08:58.440Z,99.99
2018-03-07T05:09:58.418Z,99.99
2018-03-07T05:10:58.407Z,99.99
2018-03-07T05:11:58.397Z,99.99
2018-03-07T05:12:58.449Z,99.99
2018-03-07T05:13:58.385Z,99.99
2018-03-07T05:14:58.362Z,99.99
2018-03-07T05:15:58.354Z,99.99
2018-03-07T05:16:58.345Z,99.99
2018-03-07T05:17:58.337Z,99.99
2018-03-07T05:18:58.078Z,99.99
2018-03-07T05:19:58.329Z,99.99
2018-03-07T05:20:58.325Z,99.99
2018-03-07T05:21:58.303Z,99.99
2018-03-07T05:22:58.041Z,99.99
2018-03-07T05:23:58.287Z,99.99
2018-03-07T05:24:58.280Z,99.99
2018-03-07T05:25:58.016Z,99.99
2018-03-07T05:26:58.268Z,99.99
2018-03-07T05:27:58.264Z,99.99
2018-03-07T05:28:58.250Z,99.99
2018-03-07T05:29:58.239Z,99.99
2018-03-07T05:30:58.230Z,99.99
2018-03-07T05:31:58.218Z,99.99
2018-03-07T05:32:58.219Z,99.99
2018-03-07T05:33:58.203Z,99.99
2018-03-07T05:34:58.198Z,99.99
2018-03-07T05:35:58.185Z,99.99
2018-03-07T05:36:58.180Z,99.99
2018-03-07T05:37:58.168Z,99.99
2018-03-07T05:38:58.162Z,99.99
2018-03-07T05:39:57.897Z,99.99
2018-03-07T05:40:57.890Z,99.99
2018-03-07T05:41:59.185Z,99.99
2018-03-07T05:42:57.877Z,99.99
2018-03-07T05:43:58.144Z,99.99
2018-03-07T05:44:57.854Z,99.99
2018-03-07T05:45:58.107Z,99.99
2018-03-07T05:46:58.192Z,99.99
2018-03-07T05:47:58.085Z,99.99
2018-03-07T05:48:57.822Z,99.99
2018-03-07T05:49:57.821Z,99.99
2018-03-07T05:50:57.805Z,99.99
2018-03-07T05:51:59.407Z,99.99
2018-03-07T05:52:58.041Z,99.99
2018-03-07T05:53:58.035Z,99.99
2018-03-07T05:54:57.772Z,99.99
2018-03-07T05:55:58.023Z,99.99
2018-03-07T05:56:58.021Z,99.99
2018-03-07T05:57:58.003Z,99.99
2018-03-07T05:58:57.998Z,99.99
2018-03-07T05:59:57.990Z,99.99
2018-03-07T06:00:57.999Z,99.99
2018-03-07T06:01:57.716Z,99.99
2018-03-07T06:02:57.964Z,99.99
2018-03-07T06:03:57.950Z,99.99
2018-03-07T06:04:57.691Z,99.99
2018-03-07T06:05:57.934Z,99.99
2018-03-07T06:06:57.959Z,99.99
2018-03-07T06:07:57.930Z,99.99
2018-03-07T06:08:57.657Z,99.99
2018-03-07T06:09:57.904Z,99.99
2018-03-07T06:10:57.893Z,99.99
2018-03-07T06:11:57.895Z,99.99
2018-03-07T06:12:57.881Z,99.99
2018-03-07T06:13:57.634Z,99.99
2018-03-07T06:14:57.868Z,99.99
2018-03-07T06:15:57.601Z,99.99
2018-03-07T06:16:57.592Z,99.99
2018-03-07T06:17:57.843Z,99.99
2018-03-07T06:18:57.856Z,99.99
2018-03-07T06:28:07.674Z,99.99
2018-03-07T06:29:07.160Z,99.99
2018-03-07T06:30:07.416Z,99.99
2018-03-07T06:31:07.412Z,99.99
2018-03-07T06:32:07.125Z,99.99
2018-03-07T06:33:07.668Z,99.99
2018-03-07T06:34:07.409Z,99.99
2018-03-07T06:35:07.356Z,99.99
2018-03-07T06:36:07.091Z,99.99
2018-03-07T06:37:07.332Z,99.99
2018-03-07T06:38:07.333Z,99.99
2018-03-07T06:39:07.315Z,99.99
2018-03-07T06:40:07.306Z,99.99
2018-03-07T06:41:07.324Z,99.99
2018-03-07T06:42:07.044Z,99.99
2018-03-07T06:43:09.141Z,99.99
2018-03-07T06:44:07.015Z,99.99
2018-03-07T06:45:07.267Z,99.99
2018-03-07T06:46:07.258Z,99.99
2018-03-07T06:47:07.246Z,99.99
2018-03-07T06:48:06.982Z,99.99
2018-03-07T06:49:07.228Z,99.99
2018-03-07T06:50:07.220Z,99.99
2018-03-07T06:51:07.212Z,99.99
2018-03-07T06:52:07.213Z,99.99
2018-03-07T06:53:07.204Z,99.99
2018-03-07T06:54:07.187Z,99.99
2018-03-07T06:55:07.180Z,99.99
2018-03-07T06:56:07.180Z,99.99
2018-03-07T06:57:07.169Z,99.99
2018-03-07T06:58:09.810Z,99.99
2018-03-07T06:59:06.897Z,99.99
2018-03-07T07:00:07.153Z,99.99
2018-03-07T07:01:07.143Z,99.99
2018-03-07T07:02:06.873Z,99.99
2018-03-07T07:03:07.124Z,99.99
2018-03-07T07:04:06.858Z,99.99
2018-03-07T07:05:07.120Z,99.99
2018-03-07T07:06:06.844Z,99.99
2018-03-07T07:07:07.094Z,99.99
2018-03-07T07:08:07.120Z,99.99
2018-03-07T07:09:07.087Z,99.99
2018-03-07T07:10:07.073Z,99.99
2018-03-07T07:11:07.061Z,99.99
2018-03-07T07:12:06.800Z,99.99
2018-03-07T07:13:07.051Z,99.99
2018-03-07T07:14:07.052Z,99.99
2018-03-07T07:15:07.043Z,99.99
2018-03-07T07:16:07.024Z,99.99
2018-03-07T07:17:07.023Z,99.99
2018-03-07T07:18:07.026Z,99.99
2018-03-07T07:19:07.104Z,99.99
2018-03-07T07:20:07.007Z,99.99
2018-03-07T07:21:06.754Z,99.99
2018-03-07T07:22:07.067Z,99.99
2018-03-07T07:23:06.966Z,99.99
2018-03-07T07:24:06.967Z,99.99
2018-03-07T07:25:06.953Z,99.99
2018-03-07T07:26:06.957Z,99.99
2018-03-07T07:27:06.944Z,99.99
2018-03-07T07:28:06.939Z,99.99
2018-03-07T07:29:08.036Z,99.99
2018-03-07T07:30:06.923Z,99.99
2018-03-07T07:31:06.907Z,99.99
2018-03-07T07:32:06.914Z,99.99
2018-03-07T07:33:06.895Z,99.99
2018-03-07T07:34:06.901Z,99.99
2018-03-07T07:35:06.913Z,99.99
2018-03-07T07:36:06.621Z,99.99
2018-03-07T07:37:06.883Z,99.99
2018-03-07T07:38:06.604Z,99.99
2018-03-07T07:39:06.875Z,99.99
2018-03-07T07:40:06.844Z,99.99
2018-03-07T07:41:06.584Z,99.99
2018-03-07T07:42:06.841Z,99.99
2018-03-07T07:43:06.588Z,99.99
2018-03-07T07:44:06.826Z,99.99
2018-03-07T07:45:06.815Z,99.99
2018-03-07T07:46:06.551Z,99.99
2018-03-07T07:47:06.821Z,99.99
2018-03-07T07:48:06.790Z,99.99
2018-03-07T07:49:06.826Z,99.99
2018-03-07T07:50:06.776Z,99.99
2018-03-07T07:51:06.769Z,99.99
2018-03-07T07:52:06.770Z,99.99
2018-03-07T07:53:06.759Z,99.99
2018-03-07T07:54:06.753Z,99.99
2018-03-07T07:55:06.745Z,99.99
2018-03-07T07:56:06.484Z,99.99
2018-03-07T07:57:06.478Z,99.99
2018-03-07T07:58:06.723Z,99.99
2018-03-07T07:59:06.720Z,99.99
2018-03-07T08:00:07.517Z,99.83
2018-03-07T08:01:06.708Z,99.99
2018-03-07T08:02:06.701Z,99.99
2018-03-07T08:03:06.695Z,98.93
2018-03-07T08:04:06.436Z,99.99
2018-03-07T08:05:06.430Z,99.83
2018-03-07T08:06:06.678Z,99.59
2018-03-07T08:07:06.418Z,99.59
2018-03-07T08:08:06.669Z,98.55
2018-03-07T08:09:06.665Z,97.97
2018-03-07T08:10:06.675Z,97.41
2018-03-07T08:11:06.647Z,96.08
2018-03-07T08:12:06.720Z,96.17
2018-03-07T08:13:06.638Z,95.41
2018-03-07T08:14:06.633Z,94.74
2018-03-07T08:15:07.713Z,94.84
2018-03-07T08:16:06.370Z,94.18
2018-03-07T08:17:06.620Z,94.03
2018-03-07T08:18:06.704Z,94.32
2018-03-07T08:19:06.612Z,93.27
2018-03-07T08:20:06.619Z,92.22
2018-03-07T08:21:06.343Z,92.03
2018-03-07T08:22:06.601Z,91.94
2018-03-07T08:23:06.590Z,90.52
2018-03-07T08:24:06.329Z,90.99
2018-03-07T08:25:06.581Z,91.94
2018-03-07T08:26:06.582Z,91.37
2018-03-07T08:27:06.613Z,90.61
2018-03-07T08:28:06.314Z,89.56
2018-03-07T08:29:06.563Z,89.47
2018-03-07T08:30:06.567Z,89.37
2018-03-07T08:31:06.303Z,89.75
2018-03-07T08:32:06.550Z,89.47
2018-03-07T08:33:06.544Z,88.71
2018-03-07T08:34:06.550Z,88.9
2018-03-07T08:35:06.283Z,88.8
2018-03-07T08:36:06.528Z,88.66
2018-03-07T08:37:06.526Z,87.99
2018-03-07T08:38:06.519Z,87.04
2018-03-07T08:39:06.537Z,86.28
2018-03-07T08:40:06.512Z,86.38
2018-03-07T08:41:06.509Z,85.9
2018-03-07T08:42:06.509Z,84.85
2018-03-07T08:43:06.500Z,84.04
2018-03-07T08:44:06.496Z,83.94
2018-03-07T08:45:06.491Z,82.99
2018-03-07T08:46:08.098Z,82.14
2018-03-07T08:47:06.486Z,81.66
2018-03-07T08:48:06.478Z,81.37
2018-03-07T08:49:06.224Z,80.61
2018-03-07T08:50:06.475Z,79.85
2018-03-07T08:51:06.214Z,79.47
2018-03-07T08:52:06.465Z,79.85
2018-03-07T08:53:06.208Z,79.7
2018-03-07T08:54:06.458Z,79.57
2018-03-07T08:55:06.457Z,78.9
2018-03-07T08:56:06.459Z,79.03
2018-03-07T08:57:06.448Z,78.04
2018-03-07T08:58:06.455Z,77.7
2018-03-07T08:59:06.458Z,77.42
2018-03-07T09:00:06.437Z,77.22
2018-03-07T09:01:06.229Z,77.8
2018-03-07T09:02:06.433Z,78.37
2018-03-07T09:03:06.429Z,78.33
2018-03-07T09:04:06.425Z,78.08
2018-03-07T09:05:06.430Z,77.89
2018-03-07T09:06:06.500Z,76.94
2018-03-07T09:07:06.416Z,76.18
2018-03-07T09:08:06.408Z,75.7
2018-03-07T09:09:06.423Z,75.7
2018-03-07T09:10:06.167Z,76.27
2018-03-07T09:11:06.397Z,75.6
2018-03-07T09:12:06.404Z,75.04
2018-03-07T09:13:06.402Z,74.27
2018-03-07T09:14:06.404Z,74.27
2018-03-07T09:15:06.411Z,74.08
2018-03-07T09:16:06.896Z,75.13
2018-03-07T09:17:06.377Z,73.45
2018-03-07T09:18:06.374Z,72.6
2018-03-07T09:19:06.372Z,71.55
2018-03-07T09:20:06.404Z,70.78
2018-03-07T09:21:06.372Z,70.69
2018-03-07T09:22:06.363Z,69.01
2018-03-07T09:23:06.369Z,68.34
2018-03-07T09:24:06.361Z,67.48
2018-03-07T09:25:06.381Z,66.72
2018-03-07T09:26:06.365Z,66.38
2018-03-07T09:27:06.346Z,66.44
2018-03-07T09:28:06.352Z,66.63
2018-03-07T09:29:06.415Z,66.18
2018-03-07T09:30:06.087Z,65.42
2018-03-07T09:31:06.348Z,64.47
2018-03-07T09:32:06.339Z,64.56
2018-03-07T09:33:06.337Z,64.75
2018-03-07T09:34:06.333Z,64.65
2018-03-07T09:35:06.383Z,64.37
2018-03-07T09:36:06.075Z,64.28
2018-03-07T09:37:06.326Z,64.65
2018-03-07T09:38:06.078Z,63.99
2018-03-07T09:39:06.329Z,64.28
2018-03-07T09:40:06.363Z,64.28
2018-03-07T09:41:06.070Z,64.47
2018-03-07T09:42:06.317Z,64.81
2018-03-07T09:43:06.327Z,64.81
2018-03-07T09:44:06.313Z,64.81
2018-03-07T09:45:06.318Z,64.62
2018-03-07T09:46:06.308Z,64.53
2018-03-07T09:47:06.317Z,64.24
2018-03-07T09:48:06.313Z,64.91
2018-03-07T09:49:06.308Z,65.2
2018-03-07T09:50:06.314Z,65.29
2018-03-07T09:51:06.075Z,65.96
2018-03-07T09:52:06.297Z,65.45
2018-03-07T09:53:06.038Z,66.21
2018-03-07T09:54:06.293Z,66.4
2018-03-07T09:55:06.288Z,66.31
2018-03-07T09:56:06.084Z,66.21
2018-03-07T09:57:06.282Z,66.69
2018-03-07T09:58:06.286Z,66.78
2018-03-07T09:59:06.306Z,66.31
2018-03-07T10:00:06.026Z,66.59
2018-03-07T10:01:06.284Z,66.4
2018-03-07T10:02:06.675Z,66.88
2018-03-07T10:03:06.272Z,66.5
2018-03-07T10:04:06.268Z,66.72
2018-03-07T10:05:06.271Z,65.77
2018-03-07T10:06:06.269Z,66.44
2018-03-07T10:07:06.033Z,66.15
2018-03-07T10:08:06.257Z,67.29
2018-03-07T10:09:06.261Z,66.44
2018-03-07T10:10:06.012Z,66.34
2018-03-07T10:11:06.000Z,66.34
2018-03-07T10:12:06.251Z,66.15
2018-03-07T10:13:06.251Z,66.91
2018-03-07T10:14:06.244Z,67.1
2018-03-07T10:15:05.987Z,68.05
2018-03-07T10:16:06.270Z,68.88
2018-03-07T10:17:07.703Z,68.5
2018-03-07T10:18:06.236Z,68.02
2018-03-07T10:19:06.238Z,68.53
2018-03-07T10:20:06.231Z,68.98
2018-03-07T10:21:06.285Z,68.88
2018-03-07T10:22:05.982Z,69.07
2018-03-07T10:23:05.974Z,69.39
2018-03-07T10:24:06.246Z,68.44
2018-03-07T10:25:05.964Z,68.15
2018-03-07T10:26:06.217Z,68.44
2018-03-07T10:27:06.220Z,67.29
2018-03-07T10:28:06.218Z,67.68
2018-03-07T10:58:04.430Z,59.38
2018-03-07T10:59:02.118Z,59.38
2018-03-07T11:00:01.962Z,58.91
2018-03-07T11:01:01.956Z,58.91
2018-03-07T11:02:01.952Z,58.91
2018-03-07T11:03:01.942Z,59.48
2018-03-07T11:04:01.722Z,59.38
2018-03-07T11:05:01.712Z,58.14
2018-03-07T11:06:01.924Z,58.52
2018-03-07T11:07:01.677Z,58.52
2018-03-07T11:08:01.657Z,57.86
2018-03-07T11:09:01.658Z,57.38
2018-03-07T11:10:01.667Z,57.19
2018-03-07T11:11:01.659Z,56.81
2018-03-07T11:12:01.643Z,56.43
2018-03-07T11:13:01.669Z,55.76
2018-03-07T11:14:01.892Z,55.19
2018-03-07T11:15:01.889Z,55.6
2018-03-07T11:16:01.880Z,54.64
2018-03-07T11:17:01.904Z,53.88
2018-03-07T11:18:01.909Z,53.69
2018-03-07T11:19:01.644Z,53.69
2018-03-07T11:20:01.877Z,53.88
2018-03-07T11:21:01.873Z,53.78
2018-03-07T11:22:01.613Z,53.31
2018-03-07T11:23:01.873Z,52.73
2018-03-07T11:24:01.858Z,52.64
2018-03-07T11:25:01.856Z,52.36
2018-03-07T11:26:01.858Z,52.07
2018-03-07T11:27:01.667Z,52.14
2018-03-07T11:28:01.859Z,52.71
2018-03-07T11:29:01.606Z,52.83
2018-03-07T11:30:01.604Z,52.55
2018-03-07T11:31:01.845Z,52.45
2018-03-07T11:32:01.840Z,52.55
2018-03-07T11:33:01.927Z,52.07
2018-03-07T11:34:01.616Z,52.16
2018-03-07T11:35:01.580Z,51.59
2018-03-07T11:36:01.830Z,51.78
2018-03-07T11:37:01.832Z,51.97
2018-03-07T11:38:01.823Z,51.88
2018-03-07T11:39:01.829Z,52.07
2018-03-07T11:40:01.826Z,52.16
2018-03-07T11:41:01.571Z,51.85
2018-03-07T11:42:01.815Z,52.33
2018-03-07T11:43:01.817Z,52.07
2018-03-07T11:44:01.817Z,51.88
2018-03-07T11:45:01.642Z,51.31
2018-03-07T11:46:01.810Z,50.92
2018-03-07T11:47:01.567Z,51.4
2018-03-07T11:48:01.552Z,50.54
2018-03-07T11:49:01.571Z,50.16
2018-03-07T11:50:01.811Z,50.54
2018-03-07T11:51:01.802Z,51.12
2018-03-07T11:52:01.803Z,51.68
2018-03-07T11:53:01.560Z,51.5
2018-03-07T11:54:01.800Z,51.59
2018-03-07T11:55:01.797Z,51.31
2018-03-07T11:56:01.544Z,51.02
2018-03-07T11:57:01.793Z,51.59
2018-03-07T11:58:01.795Z,51.31
2018-03-07T11:59:01.530Z,50.83
2018-03-07T12:00:01.791Z,51.12
2018-03-07T12:01:01.526Z,51.31
2018-03-07T12:02:01.793Z,51.68
2018-03-07T12:03:01.790Z,51.68
2018-03-07T12:04:01.772Z,51.78
2018-03-07T12:05:01.775Z,51.88
2018-03-07T12:06:01.768Z,52.36
2018-03-07T12:07:01.768Z,52.36
2018-03-07T12:08:01.767Z,52.55
2018-03-07T12:09:01.786Z,52.55
2018-03-07T12:10:01.793Z,53.09
2018-03-07T12:11:01.508Z,51.97
2018-03-07T12:12:01.777Z,51.97
2018-03-07T12:13:01.756Z,51.78
2018-03-07T12:14:01.561Z,51.59
2018-03-07T12:15:01.759Z,51.59
2018-03-07T12:16:01.753Z,51.21
2018-03-07T12:17:01.772Z,51.21
2018-03-07T12:18:01.753Z,51.5
2018-03-07T12:19:01.756Z,51.59
2018-03-07T12:20:01.761Z,51.02
2018-03-07T12:21:01.507Z,51.02
2018-03-07T12:22:01.748Z,50.76
2018-03-07T12:23:01.756Z,50.67
2018-03-07T12:24:01.755Z,50.38
2018-03-07T12:25:01.744Z,49.99
2018-03-07T12:26:01.746Z,50.57
2018-03-07T12:27:01.731Z,51.12
2018-03-07T12:28:01.734Z,51.21
2018-03-07T12:29:02.823Z,51.4
2018-03-07T12:30:01.494Z,51.88
2018-03-07T12:31:01.740Z,52.36
2018-03-07T12:32:01.735Z,52.45
2018-03-07T12:33:01.718Z,52.07
2018-03-07T12:34:01.497Z,51.71
2018-03-07T12:35:01.725Z,51.12
2018-03-07T12:36:01.729Z,51.14
2018-03-07T12:37:01.461Z,52.38
2018-03-07T12:38:01.730Z,51.9
2018-03-07T12:39:01.724Z,52.57
2018-03-07T12:40:01.456Z,52.67
2018-03-07T12:41:01.450Z,52
2018-03-07T12:42:01.450Z,52.09
2018-03-07T12:43:01.709Z,51.71
2018-03-07T12:44:01.718Z,50.09
2018-03-07T12:45:01.704Z,49.99
2018-03-07T12:46:01.719Z,50.38
2018-03-07T12:47:01.751Z,50.02
2018-03-07T12:48:01.441Z,50.02
2018-03-07T12:49:01.439Z,49.93
2018-03-07T12:50:01.719Z,49.71
2018-03-07T12:51:01.742Z,49.52
2018-03-07T12:52:01.717Z,49.54
2018-03-07T12:53:01.716Z,49.35
2018-03-07T12:54:01.698Z,49.07
2018-03-07T12:55:01.431Z,49.73
2018-03-07T12:56:01.431Z,49.44
2018-03-07T12:57:01.686Z,48.78
2018-03-07T12:58:01.686Z,48.49
2018-03-07T12:59:02.933Z,48.68
2018-03-07T13:00:01.424Z,49.35
2018-03-07T13:01:01.708Z,48.68
2018-03-07T13:02:01.680Z,49.52
2018-03-07T13:03:01.740Z,49.42
2018-03-07T13:04:01.416Z,49.13
2018-03-07T13:05:01.690Z,49.13
2018-03-07T13:06:01.686Z,49.52
2018-03-07T13:07:01.690Z,49.26
2018-03-07T13:08:01.414Z,49.13
2018-03-07T13:09:01.679Z,49.83
2018-03-07T13:10:01.682Z,50.09
2018-03-07T13:11:01.684Z,50.18
2018-03-07T13:12:01.679Z,50.28
2018-03-07T13:13:01.415Z,50.67
2018-03-07T13:14:01.669Z,50.76
2018-03-07T13:15:01.674Z,50.45
2018-03-07T13:16:01.669Z,50.76
2018-03-07T13:17:01.669Z,51.12
2018-03-07T13:18:01.676Z,51.78
2018-03-07T13:19:01.667Z,51.88
2018-03-07T13:20:01.653Z,51.97
2018-03-07T13:21:01.666Z,52.55
2018-03-07T13:22:01.395Z,52.73
2018-03-07T13:23:01.672Z,52.16
2018-03-07T13:24:01.643Z,53.02
2018-03-07T13:25:01.652Z,53.12
2018-03-07T13:26:01.652Z,53.5
2018-03-07T13:27:01.644Z,53.41
2018-03-07T13:28:01.640Z,54.17
2018-03-07T13:29:01.632Z,53.97
2018-03-07T13:30:01.640Z,53.76
2018-03-07T13:31:01.638Z,53.95